Time;durP1;ratioP1;P1;durP2;ratioP2;P2;SDS_P1;SDS_P2;PMS_P1;PMS_P2;Temp;Humidity;BMP_temperature;BMP_pressure;BME280_temperature;BME280_humidity;BME280_pressure;Samples;Min_cycle;Max_cycle;Signal;HPM_P1;HPM_P2
2024/01/18 00:01:08;;;;;;;8.43;5.60;;;;;;;2.11;82.78;97965.19;4079931;29;20090;-61
2024/01/18 00:03:11;;;;;;;9.38;6.32;;;;;;;2.12;82.66;97961.81;4082229;28;20126;-62
2024/01/18 00:05:14;;;;;;;7.10;5.35;;;;;;;2.08;82.84;97962.63;4088698;29;20042;-61
2024/01/18 00:07:17;;;;;;;8.68;5.55;;;;;;;2.10;82.73;97976.28;4094016;29;20066;-59
2024/01/18 00:09:22;;;;;;;9.85;6.20;;;;;;;1.98;83.42;97979.63;4093302;29;20115;-61
2024/01/18 00:11:25;;;;;;;8.57;5.70;;;;;;;2.14;82.61;97982.31;4084134;29;20043;-61
2024/01/18 00:13:28;;;;;;;9.40;6.38;;;;;;;2.13;82.93;97972.91;4087947;29;20047;-61
2024/01/18 00:15:31;;;;;;;10.68;7.00;;;;;;;1.99;83.39;97981.34;4092831;29;20039;-61
2024/01/18 00:17:33;;;;;;;10.48;6.95;;;;;;;2.11;83.20;97974.59;4087057;29;20099;-62
2024/01/18 00:19:36;;;;;;;9.82;7.50;;;;;;;2.13;83.46;97988.28;4084965;29;20052;-61
2024/01/18 00:21:39;;;;;;;9.80;6.68;;;;;;;2.01;83.37;97995.00;4092662;29;20103;-62
2024/01/18 00:23:46;;;;;;;11.57;7.88;;;;;;;2.07;83.49;97999.31;4075588;29;20074;-62
2024/01/18 00:25:49;;;;;;;11.20;7.78;;;;;;;2.01;83.85;97995.00;4082922;29;20127;-61
2024/01/18 00:27:51;;;;;;;11.52;8.38;;;;;;;2.00;83.82;97993.31;4082150;29;20399;-61
2024/01/18 00:29:54;;;;;;;14.95;10.65;;;;;;;2.00;83.79;98002.69;4085992;29;20459;-61
2024/01/18 00:31:56;;;;;;;15.27;11.07;;;;;;;2.08;83.89;98001.91;4083090;28;20048;-62
2024/01/18 00:33:59;;;;;;;14.02;10.43;;;;;;;2.09;82.69;97998.50;4084896;29;20043;-61
2024/01/18 00:36:02;;;;;;;15.48;10.90;;;;;;;2.13;83.44;98003.66;4093177;29;20044;-62
2024/01/18 00:38:05;;;;;;;17.38;12.15;;;;;;;2.22;82.93;98014.84;4085149;29;20067;-61
2024/01/18 00:40:12;;;;;;;16.58;11.90;;;;;;;2.10;82.54;98014.72;4088051;29;20043;-62
2024/01/18 00:42:16;;;;;;;17.65;13.20;;;;;;;2.05;83.11;98021.53;4087952;29;20036;-62
2024/01/18 00:44:19;;;;;;;20.42;15.00;;;;;;;2.16;82.48;98030.19;4093434;29;20044;-62
2024/01/18 00:46:21;;;;;;;19.90;15.50;;;;;;;2.16;82.05;98035.31;4086278;29;20052;-61
2024/01/18 00:48:24;;;;;;;21.25;15.43;;;;;;;1.95;82.91;98018.03;4082031;29;20035;-61
2024/01/18 00:50:27;;;;;;;21.15;14.60;;;;;;;1.96;83.70;98030.00;4087286;29;20079;-61
2024/01/18 00:52:30;;;;;;;22.52;15.65;;;;;;;2.02;83.44;98022.34;4090775;29;20048;-61
2024/01/18 00:54:32;;;;;;;21.48;16.10;;;;;;;2.00;83.02;98026.63;4091654;29;20121;-61
2024/01/18 00:56:37;;;;;;;23.40;16.17;;;;;;;2.07;83.75;98025.84;4081676;29;20045;-62
2024/01/18 00:58:40;;;;;;;22.52;17.30;;;;;;;2.03;83.02;98038.59;4084313;29;20035;-61
2024/01/18 01:00:44;;;;;;;23.50;17.38;;;;;;;2.04;83.23;98040.31;4084449;29;20047;-60
2024/01/18 01:02:46;;;;;;;22.50;16.55;;;;;;;2.08;83.12;98048.03;4087617;28;20044;-60
2024/01/18 01:04:49;;;;;;;21.85;16.40;;;;;;;2.05;83.03;98035.19;4085138;29;20413;-59
2024/01/18 01:06:52;;;;;;;21.65;16.00;;;;;;;1.90;83.38;98038.47;4092164;29;20044;-61
2024/01/18 01:08:55;;;;;;;21.05;14.95;;;;;;;2.00;83.36;98036.00;4092239;28;20047;-61
2024/01/18 01:10:58;;;;;;;21.85;15.43;;;;;;;2.05;82.83;98048.00;4087539;29;20053;-61
2024/01/18 01:13:03;;;;;;;23.65;15.82;;;;;;;2.13;82.08;98049.78;4084851;28;20054;-60
2024/01/18 01:15:07;;;;;;;20.58;15.85;;;;;;;2.05;82.46;98048.00;4080993;29;20043;-61
2024/01/18 01:17:10;;;;;;;21.48;15.55;;;;;;;2.17;81.50;98043.84;4081044;29;20135;-61
2024/01/18 01:19:13;;;;;;;20.17;15.10;;;;;;;2.14;81.25;98041.25;4082439;29;20494;-62
2024/01/18 01:21:16;;;;;;;22.13;16.42;;;;;;;1.99;82.05;98047.97;4091100;29;20568;-62
2024/01/18 01:23:19;;;;;;;20.80;15.20;;;;;;;1.99;82.40;98030.03;4094551;28;20553;-61
2024/01/18 01:25:23;;;;;;;23.55;16.30;;;;;;;2.05;81.76;98037.75;4083342;29;20420;-61
2024/01/18 01:27:26;;;;;;;22.90;15.27;;;;;;;2.03;81.66;98053.97;4090447;29;20504;-61
2024/01/18 01:29:30;;;;;;;22.85;16.73;;;;;;;1.99;81.93;98052.25;4092044;28;20039;-62
2024/01/18 01:31:33;;;;;;;22.15;15.63;;;;;;;2.04;81.91;98056.53;4082238;29;20036;-62
2024/01/18 01:33:36;;;;;;;23.60;16.48;;;;;;;2.02;81.66;98068.47;4081940;29;20433;-60
2024/01/18 01:35:38;;;;;;;20.95;15.10;;;;;;;1.87;81.98;98060.63;4091343;29;20031;-61
2024/01/18 01:37:41;;;;;;;19.08;14.75;;;;;;;1.91;81.74;98053.03;4087475;29;20524;-62
2024/01/18 01:39:46;;;;;;;18.10;13.82;;;;;;;1.91;81.62;98065.84;4079413;29;20094;-61
2024/01/18 01:41:49;;;;;;;19.80;13.98;;;;;;;1.89;81.73;98066.66;4087085;28;20032;-61
2024/01/18 01:43:59;;;;;;;18.27;13.50;;;;;;;1.79;82.04;98067.41;4083869;29;20032;-60
2024/01/18 01:46:03;;;;;;;21.30;14.85;;;;;;;1.80;81.74;98071.69;4085819;29;20039;-61
2024/01/18 01:48:08;;;;;;;18.77;14.32;;;;;;;1.77;81.97;98081.88;4078813;29;20040;-62
2024/01/18 01:50:11;;;;;;;19.23;14.13;;;;;;;1.74;82.05;98069.91;4083675;29;20071;-61
2024/01/18 01:52:16;;;;;;;20.92;13.73;;;;;;;1.69;82.51;98090.34;4085270;29;20450;-62
2024/01/18 01:54:20;;;;;;;17.42;13.32;;;;;;;1.72;82.67;98079.28;4082949;29;20042;-60
2024/01/18 01:56:23;;;;;;;19.85;13.93;;;;;;;1.83;82.44;98075.13;4091484;29;20130;-61
2024/01/18 01:58:26;;;;;;;19.67;14.43;;;;;;;1.88;81.47;98070.03;4092518;29;20405;-59
2024/01/18 02:00:28;;;;;;;19.75;14.52;;;;;;;1.69;82.40;98069.00;4080009;29;20067;-62
2024/01/18 02:02:35;;;;;;;19.38;13.45;;;;;;;2.01;81.30;98071.88;4082066;29;20047;-62
2024/01/18 02:04:37;;;;;;;18.20;13.13;;;;;;;1.94;80.82;98090.59;4082730;29;20051;-61
2024/01/18 02:06:41;;;;;;;18.85;13.35;;;;;;;1.79;81.45;98081.06;4091444;29;20461;-61
2024/01/18 02:08:46;;;;;;;20.00;13.80;;;;;;;1.77;81.35;98076.75;4090667;28;20042;-59
2024/01/18 02:10:49;;;;;;;21.25;15.05;;;;;;;1.80;81.42;98084.50;4082492;29;20123;-61
2024/01/18 02:12:53;;;;;;;19.80;14.60;;;;;;;1.88;81.21;98087.97;4096611;28;20075;-61
2024/01/18 02:14:56;;;;;;;19.42;13.50;;;;;;;1.76;81.48;98078.47;4082325;29;20516;-60
2024/01/18 02:16:59;;;;;;;20.50;13.52;;;;;;;1.69;81.20;98090.34;4080349;29;20043;-62
2024/01/18 02:19:03;;;;;;;19.70;14.07;;;;;;;1.63;82.25;98079.19;4082497;29;20040;-62
2024/01/18 02:21:08;;;;;;;;;;;;;;;1.66;82.06;98081.78;4091455;29;20083;-60
2024/01/18 02:23:12;;;;;;;19.58;13.13;;;;;;;1.66;81.73;98063.84;4091171;29;19923;-61
2024/01/18 02:25:19;;;;;;;18.40;13.48;;;;;;;1.47;82.75;98062.78;4086383;29;20043;-62
2024/01/18 02:27:21;;;;;;;18.63;14.13;;;;;;;1.41;83.33;98073.81;4090310;28;20043;-61
2024/01/18 02:29:24;;;;;;;22.23;14.18;;;;;;;1.64;82.81;98070.66;4082543;29;20036;-61
2024/01/18 02:31:27;;;;;;;20.58;14.20;;;;;;;1.70;81.98;98065.59;4090788;29;20039;-61
2024/01/18 02:33:32;;;;;;;20.45;14.10;;;;;;;1.72;81.66;98063.91;4082907;28;20124;-61
2024/01/18 02:35:55;;;;;;;21.33;13.68;;;;;;;1.68;81.85;98063.03;4087753;29;20147;-61
2024/01/18 02:37:58;;;;;;;20.20;13.63;;;;;;;1.55;81.94;98067.16;4091647;29;20063;-61
2024/01/18 02:40:01;;;;;;;22.23;14.95;;;;;;;1.59;82.24;98070.59;4092292;29;20035;-62
2024/01/18 02:42:05;;;;;;;20.05;12.50;;;;;;;1.55;82.00;98073.97;4082429;29;20056;-61
2024/01/18 02:44:08;;;;;;;20.13;14.02;;;;;;;1.53;81.97;98067.97;4080490;29;20478;-61
2024/01/18 02:46:11;;;;;;;18.45;12.48;;;;;;;1.78;80.52;98069.09;4081694;29;20042;-61
2024/01/18 02:48:14;;;;;;;17.88;13.05;;;;;;;1.60;80.65;98082.56;4082957;29;20075;-61
2024/01/18 02:50:17;;;;;;;18.48;12.20;;;;;;;1.70;80.77;98081.81;4081080;29;20091;-61
2024/01/18 02:52:20;;;;;;;18.30;12.13;;;;;;;1.63;80.84;98084.31;4082316;29;20044;-61
2024/01/18 02:54:23;;;;;;;18.58;12.80;;;;;;;1.35;81.83;98100.19;4090799;29;20032;-61
2024/01/18 02:56:26;;;;;;;18.90;13.73;;;;;;;1.42;81.93;98095.13;4090095;29;20067;-61
2024/01/18 02:58:30;;;;;;;19.48;12.52;;;;;;;1.58;81.56;98086.81;4091722;29;20458;-61
2024/01/18 03:00:33;;;;;;;17.00;11.98;;;;;;;1.65;80.51;98083.47;4077828;29;20199;-61
2024/01/18 03:02:36;;;;;;;17.95;12.07;;;;;;;1.53;80.85;98066.28;4075573;29;20457;-62
2024/01/18 03:04:39;;;;;;;17.30;12.07;;;;;;;1.63;80.92;98054.41;4079315;29;20118;-63
2024/01/18 03:06:42;;;;;;;18.48;12.80;;;;;;;1.61;80.79;98056.13;4088117;29;20041;-60
2024/01/18 03:08:45;;;;;;;18.85;13.25;;;;;;;1.50;81.03;98070.50;4090168;29;20039;-61
2024/01/18 03:10:48;;;;;;;21.17;12.80;;;;;;;1.54;80.79;98065.41;4083115;29;20046;-61
2024/01/18 03:12:50;;;;;;;19.08;12.57;;;;;;;1.60;80.89;98045.84;4089578;28;20497;-61
2024/01/18 03:14:54;;;;;;;18.80;13.20;;;;;;;1.57;80.46;98050.09;4084197;29;20035;-62
2024/01/18 03:16:57;;;;;;;19.42;13.23;;;;;;;1.38;81.10;98054.13;4078331;29;20046;-61
2024/01/18 03:19:00;;;;;;;17.13;12.02;;;;;;;1.56;80.34;98058.63;4082350;29;20489;-61
2024/01/18 03:21:05;;;;;;;19.55;11.80;;;;;;;1.44;81.35;98058.47;4081164;29;20051;-61
2024/01/18 03:23:08;;;;;;;16.67;11.60;;;;;;;1.48;81.18;98050.00;4082697;29;20486;-62
2024/01/18 03:25:12;;;;;;;18.05;13.57;;;;;;;1.41;81.33;98057.59;4090720;29;20127;-61
2024/01/18 03:27:15;;;;;;;18.13;12.05;;;;;;;1.27;81.74;98058.28;4086430;29;20164;-61
2024/01/18 03:29:18;;;;;;;17.63;12.23;;;;;;;1.49;81.36;98050.84;4090579;29;20386;-62
2024/01/18 03:31:23;;;;;;;20.65;12.77;;;;;;;1.46;80.97;98068.72;4083818;29;20038;-61
2024/01/18 03:33:26;;;;;;;20.55;12.82;;;;;;;1.25;81.45;98075.31;4082512;29;20055;-61
2024/01/18 03:35:32;;;;;;;20.42;13.45;;;;;;;1.22;82.23;98072.72;4085228;29;20490;-62
2024/01/18 03:37:35;;;;;;;21.98;13.57;;;;;;;1.45;81.54;98078.13;4090366;29;20053;-61
2024/01/18 03:39:37;;;;;;;18.60;12.95;;;;;;;1.57;80.69;98077.41;4091918;29;20039;-61
2024/01/18 03:41:40;;;;;;;19.98;12.70;;;;;;;1.39;80.55;98084.03;4087441;29;20065;-62
2024/01/18 03:43:43;;;;;;;19.30;13.35;;;;;;;1.43;81.05;98091.75;4086300;29;20036;-62
2024/01/18 03:45:47;;;;;;;17.45;12.57;;;;;;;1.49;80.55;98091.81;4082302;29;20040;-62
2024/01/18 03:47:51;;;;;;;19.60;13.45;;;;;;;1.43;80.86;98091.75;4086258;29;20104;-62
2024/01/18 03:49:53;;;;;;;19.15;12.93;;;;;;;1.31;80.90;98095.00;4086637;29;20102;-61
2024/01/18 03:51:56;;;;;;;18.88;12.73;;;;;;;1.31;81.43;98089.88;4085071;29;20501;-61
2024/01/18 03:53:59;;;;;;;22.00;13.63;;;;;;;1.28;81.68;98093.25;4086440;29;20525;-62
2024/01/18 03:56:02;;;;;;;20.95;13.95;;;;;;;1.38;81.11;98087.41;4086358;29;20099;-62
2024/01/18 03:58:04;;;;;;;18.33;13.10;;;;;;;1.35;81.38;98077.13;4086273;29;20470;-61
2024/01/18 04:00:10;;;;;;;21.20;13.82;;;;;;;1.40;81.14;98079.75;4086172;29;20035;-61
2024/01/18 04:02:13;;;;;;;20.60;14.18;;;;;;;1.50;80.34;98078.16;4084828;29;20039;-62
2024/01/18 04:04:17;;;;;;;21.20;14.55;;;;;;;1.33;80.94;98077.94;4086198;29;20123;-61
2024/01/18 04:06:20;;;;;;;22.10;13.70;;;;;;;1.41;81.03;98080.63;4086400;29;20040;-61
2024/01/18 04:08:24;;;;;;;22.15;15.10;;;;;;;1.28;81.58;98072.78;4086116;29;20039;-61
2024/01/18 04:10:27;;;;;;;20.65;15.27;;;;;;;1.22;82.13;98067.59;4085729;29;20058;-61
2024/01/18 04:12:30;;;;;;;22.38;14.75;;;;;;;1.33;82.09;98065.16;4085574;29;20294;-62
2024/01/18 04:14:32;;;;;;;20.92;14.10;;;;;;;1.41;81.96;98078.91;4084586;29;20088;-62
2024/01/18 04:16:34;;;;;;;21.02;14.73;;;;;;;1.31;81.47;98083.06;4082343;29;20103;-61
2024/01/18 04:18:37;;;;;;;22.15;14.88;;;;;;;1.19;82.47;98082.91;4083878;29;20514;-61
2024/01/18 04:20:42;;;;;;;21.00;14.10;;;;;;;1.21;82.55;98101.69;4085726;29;20135;-61
2024/01/18 04:22:45;;;;;;;21.00;14.43;;;;;;;1.27;82.44;98113.72;4085531;29;20051;-61
2024/01/18 04:24:48;;;;;;;21.35;14.75;;;;;;;1.33;82.48;98124.03;4088833;29;20040;-61
2024/01/18 04:26:50;;;;;;;19.17;13.40;;;;;;;1.39;81.57;98135.22;4084462;29;20040;-61
2024/01/18 04:28:52;;;;;;;21.13;14.32;;;;;;;1.36;81.42;98131.78;4091256;28;20044;-62
2024/01/18 04:30:55;;;;;;;21.50;13.75;;;;;;;1.45;81.17;98126.75;4083674;29;20058;-61
2024/01/18 04:32:58;;;;;;;17.75;12.25;;;;;;;1.48;80.46;98114.00;4080620;29;20044;-62
2024/01/18 04:35:00;;;;;;;21.27;13.15;;;;;;;1.38;80.29;98119.84;4083826;29;20032;-61
2024/01/18 04:37:05;;;;;;;19.88;12.48;;;;;;;1.24;80.78;98114.53;4090731;29;20044;-61
2024/01/18 04:39:09;;;;;;;21.60;13.38;;;;;;;1.31;80.79;98124.00;4092517;29;20040;-61
2024/01/18 04:41:12;;;;;;;19.70;13.90;;;;;;;1.37;80.64;98124.13;4087993;29;20420;-61
2024/01/18 04:43:15;;;;;;;20.92;14.05;;;;;;;1.25;81.17;98123.09;4083806;29;20298;-61
2024/01/18 04:45:17;;;;;;;24.02;15.52;;;;;;;1.12;81.77;98116.94;4084929;29;20063;-61
2024/01/18 04:47:20;;;;;;;19.88;13.27;;;;;;;1.15;81.94;98122.94;4084402;29;20379;-61
2024/01/18 04:49:23;;;;;;;17.80;13.35;;;;;;;1.26;81.21;98127.38;4081613;29;20040;-61
2024/01/18 04:51:27;;;;;;;20.52;13.20;;;;;;;1.18;80.64;98117.88;4082579;29;20055;-61
2024/01/18 04:53:31;;;;;;;17.33;12.60;;;;;;;1.33;80.31;98122.34;4083467;29;20515;-61
2024/01/18 04:55:34;;;;;;;19.75;13.43;;;;;;;1.25;80.46;98143.56;4083169;29;20031;-61
2024/01/18 04:57:37;;;;;;;19.17;14.20;;;;;;;1.12;81.01;98147.63;4090158;29;20047;-61
2024/01/18 04:59:41;;;;;;;20.50;14.40;;;;;;;1.22;81.62;98150.34;4090567;29;20035;-61
2024/01/18 05:01:44;;;;;;;18.88;13.05;;;;;;;1.16;81.47;98180.97;4082266;28;20126;-61
2024/01/18 05:03:47;;;;;;;21.88;15.40;;;;;;;1.09;82.07;98189.38;4082622;29;20047;-62
2024/01/18 05:05:49;;;;;;;19.73;13.57;;;;;;;1.27;81.31;98170.91;4087803;28;20094;-61
2024/01/18 05:07:52;;;;;;;19.05;14.00;;;;;;;1.12;81.36;98196.25;4089842;29;20075;-60
2024/01/18 05:09:57;;;;;;;21.67;14.93;;;;;;;1.03;82.35;98205.50;4090176;28;20050;-61
2024/01/18 05:12:00;;;;;;;20.52;13.48;;;;;;;1.16;82.39;98204.00;4091423;29;20151;-61
2024/01/18 05:14:02;;;;;;;17.20;12.30;;;;;;;1.44;80.71;98196.72;4085957;29;20486;-61
2024/01/18 05:16:06;;;;;;;16.73;12.13;;;;;;;1.35;80.76;98197.44;4082002;29;20039;-61
2024/01/18 05:18:09;;;;;;;16.10;11.52;;;;;;;1.40;80.94;98200.06;4079360;29;20036;-60
2024/01/18 05:20:12;;;;;;;16.50;12.00;;;;;;;1.31;80.78;98193.13;4082310;29;20654;-60
2024/01/18 05:22:15;;;;;;;16.58;11.98;;;;;;;1.23;81.06;98179.38;4091765;29;20139;-61
2024/01/18 05:24:19;;;;;;;18.10;12.27;;;;;;;1.21;80.55;98175.91;4092054;29;20085;-61
2024/01/18 05:26:23;;;;;;;16.73;11.80;;;;;;;1.09;81.74;98175.75;4097183;29;20493;-61
2024/01/18 05:28:25;;;;;;;19.30;14.10;;;;;;;1.09;81.73;98168.91;4091048;29;20126;-61
2024/01/18 05:30:28;;;;;;;18.63;13.30;;;;;;;1.16;81.76;98154.53;4086553;28;20075;-61
2024/01/18 05:32:31;;;;;;;20.25;13.90;;;;;;;1.11;81.73;98157.03;4053990;29;1090650;-60
2024/01/18 05:34:35;;;;;;;21.45;14.48;;;;;;;1.14;81.80;98157.06;4099703;29;20098;-60
2024/01/18 05:36:38;;;;;;;20.08;13.38;;;;;;;1.12;82.04;98152.75;4100852;29;20469;-61
2024/01/18 05:38:41;;;;;;;19.17;13.93;;;;;;;1.27;81.61;98158.09;4092084;29;20036;-60
2024/01/18 05:40:45;;;;;;;17.63;13.30;;;;;;;1.09;81.94;98163.81;4092885;29;20070;-61
2024/01/18 05:42:49;;;;;;;19.73;14.60;;;;;;;1.10;81.94;98150.19;4100716;28;20039;-61
2024/01/18 05:44:53;;;;;;;20.13;13.43;;;;;;;0.98;82.75;98145.75;4099609;29;20039;-60
2024/01/18 05:46:55;;;;;;;21.23;14.93;;;;;;;0.95;82.78;98155.94;4092198;28;20055;-60
2024/01/18 05:48:58;;;;;;;21.52;14.57;;;;;;;1.20;81.86;98151.19;4092675;29;20055;-60
2024/01/18 05:51:01;;;;;;;20.50;13.85;;;;;;;1.07;81.48;98137.34;4100590;29;20042;-61
2024/01/18 05:53:04;;;;;;;21.83;14.40;;;;;;;1.09;82.00;98132.25;4100667;29;20102;-60
2024/01/18 05:55:08;;;;;;;19.90;13.45;;;;;;;1.07;81.78;98149.25;4100904;29;20077;-61
2024/01/18 05:57:11;;;;;;;20.17;13.32;;;;;;;1.11;81.70;98138.22;4092840;28;20042;-60
2024/01/18 05:59:15;;;;;;;22.80;14.13;;;;;;;1.18;81.31;98111.88;4092553;28;20046;-61
2024/01/18 06:01:18;;;;;;;21.58;13.82;;;;;;;1.08;81.30;98120.28;4096559;28;20142;-60
2024/01/18 06:03:21;;;;;;;19.10;13.95;;;;;;;1.03;81.29;98133.00;4091285;29;20044;-60
2024/01/18 06:05:24;;;;;;;21.55;12.60;;;;;;;0.96;81.78;98144.84;4092451;29;20161;-60
2024/01/18 06:07:27;;;;;;;21.90;13.25;;;;;;;1.08;80.97;98151.00;4098079;29;20208;-59
2024/01/18 06:09:30;;;;;;;20.17;13.60;;;;;;;1.09;80.77;98137.38;4083393;29;20058;-61
2024/01/18 06:11:33;;;;;;;21.23;14.00;;;;;;;0.99;81.28;98144.91;4100183;29;20043;-60
2024/01/18 06:13:39;;;;;;;21.33;14.02;;;;;;;1.00;81.40;98148.31;4095308;28;20103;-60
2024/01/18 06:15:43;;;;;;;22.48;13.68;;;;;;;0.95;81.56;98148.25;4092348;29;20071;-61
2024/01/18 06:17:46;;;;;;;19.98;13.15;;;;;;;0.87;81.90;98142.16;4088437;29;20401;-60
2024/01/18 06:19:49;;;;;;;20.38;13.30;;;;;;;0.89;81.82;98154.97;4082226;29;20130;-60
2024/01/18 06:21:52;;;;;;;19.60;12.65;;;;;;;0.94;81.48;98156.75;4084083;29;20051;-61
2024/01/18 06:23:55;;;;;;;17.95;11.95;;;;;;;0.81;81.89;98158.25;4082755;29;20537;-60
2024/01/18 06:25:57;;;;;;;18.33;12.43;;;;;;;0.78;82.47;98157.38;4087939;29;20050;-61
2024/01/18 06:28:00;;;;;;;22.25;12.73;;;;;;;0.82;82.48;98161.69;4091877;29;20052;-60
2024/01/18 06:30:09;;;;;;;18.52;12.82;;;;;;;1.01;81.09;98160.28;4098673;29;20047;-60
2024/01/18 06:32:14;;;;;;;18.73;12.93;;;;;;;0.89;81.41;98171.16;4095552;28;20130;-61
2024/01/18 06:34:17;;;;;;;22.98;13.23;;;;;;;0.97;81.46;98174.72;4092110;28;20520;-60
2024/01/18 06:36:22;;;;;;;21.58;12.88;;;;;;;1.01;81.08;98175.63;4099917;28;20039;-60
2024/01/18 06:38:25;;;;;;;19.58;13.73;;;;;;;0.87;80.96;98172.84;4099970;28;20098;-61
2024/01/18 06:40:28;;;;;;;20.55;13.73;;;;;;;0.89;81.37;98185.66;4100037;29;20101;-60
2024/01/18 06:42:31;;;;;;;18.30;12.23;;;;;;;0.91;81.04;98192.53;4095750;28;20058;-60
2024/01/18 06:44:34;;;;;;;18.08;13.15;;;;;;;0.90;80.96;98190.81;4091918;28;20437;-59
2024/01/18 06:46:37;;;;;;;19.05;13.40;;;;;;;0.90;80.94;98195.91;4099760;28;20114;-60
2024/01/18 06:48:42;;;;;;;18.15;11.77;;;;;;;0.77;81.21;98202.53;4090806;29;20047;-60
2024/01/18 06:50:45;;;;;;;19.88;12.18;;;;;;;0.86;80.81;98199.25;4092051;29;20066;-60
2024/01/18 06:52:48;;;;;;;20.67;12.30;;;;;;;0.82;81.09;98195.78;4095787;29;20360;-59
2024/01/18 06:54:51;;;;;;;19.48;12.52;;;;;;;0.67;80.95;98195.53;4092314;29;20043;-59
2024/01/18 06:56:54;;;;;;;18.17;11.85;;;;;;;0.73;80.83;98199.88;4099746;28;20066;-60
2024/01/18 06:58:55;;;;;;;20.67;12.50;;;;;;;0.66;80.83;98192.13;4098540;29;20074;-59
2024/01/18 07:00:58;;;;;;;20.15;11.90;;;;;;;0.72;80.59;98193.94;4091376;28;20139;-60
2024/01/18 07:03:01;;;;;;;19.42;12.57;;;;;;;0.59;80.68;98184.34;4090420;29;20040;-61
2024/01/18 07:05:07;;;;;;;18.55;13.02;;;;;;;0.59;80.16;98186.88;4091466;28;20134;-60
2024/01/18 07:07:08;;;;;;;17.05;11.88;;;;;;;0.44;80.61;98201.13;4099403;28;20035;-60
2024/01/18 07:09:11;;;;;;;17.45;11.25;;;;;;;0.50;80.73;98205.47;4099543;28;20069;-61
2024/01/18 07:11:14;;;;;;;19.20;10.77;;;;;;;0.47;80.69;98208.00;4093946;28;20402;-60
2024/01/18 07:13:16;;;;;;;16.60;11.23;;;;;;;0.51;80.34;98212.28;4090136;29;20564;-61
2024/01/18 07:15:20;;;;;;;17.27;12.02;;;;;;;0.49;80.78;98208.88;4099512;28;20424;-61
2024/01/18 07:17:23;;;;;;;18.42;11.70;;;;;;;0.50;80.71;98213.16;4096332;28;20058;-59
2024/01/18 07:19:26;;;;;;;18.63;10.85;;;;;;;0.50;80.85;98223.38;4083374;29;20086;-60
2024/01/18 07:21:29;;;;;;;20.13;11.50;;;;;;;0.43;80.66;98221.53;4082590;29;20592;-60
2024/01/18 07:23:32;;;;;;;17.38;11.02;;;;;;;0.47;80.35;98238.66;4083598;29;20048;-59
2024/01/18 07:25:35;;;;;;;17.90;11.05;;;;;;;0.55;79.82;98252.44;4083615;29;20043;-61
2024/01/18 07:27:38;;;;;;;20.35;12.40;;;;;;;0.50;79.89;98246.38;4081355;29;20139;-60
2024/01/18 07:29:41;;;;;;;20.88;12.82;;;;;;;0.51;79.99;98255.75;4091452;29;20043;-61
2024/01/18 07:31:44;;;;;;;16.58;12.02;;;;;;;0.39;80.08;98251.28;4098592;29;20210;-60
2024/01/18 07:33:50;;;;;;;18.00;11.63;;;;;;;0.52;80.07;98257.47;4094791;28;20054;-61
2024/01/18 07:35:53;;;;;;;20.73;12.43;;;;;;;0.43;80.48;98258.19;4084810;29;20042;-60
2024/01/18 07:37:58;;;;;;;17.85;11.77;;;;;;;0.43;80.36;98260.72;4082386;29;20522;-61
2024/01/18 07:40:01;;;;;;;18.98;11.23;;;;;;;0.39;80.48;98266.59;4091398;29;20051;-60
2024/01/18 07:42:05;;;;;;;17.98;10.98;;;;;;;0.44;80.06;98270.13;4083073;29;20047;-61
2024/01/18 07:44:08;;;;;;;14.65;10.85;;;;;;;0.43;80.69;98268.41;4083330;29;20043;-60
2024/01/18 07:46:11;;;;;;;18.95;11.18;;;;;;;0.47;80.06;98264.22;4082970;29;20043;-60
2024/01/18 07:48:14;;;;;;;16.73;11.25;;;;;;;0.46;80.18;98267.59;4085203;29;20044;-61
2024/01/18 07:50:17;;;;;;;18.45;10.75;;;;;;;0.46;80.39;98272.72;4090619;29;20044;-60
2024/01/18 07:52:38;;;;;;;24.52;11.57;;;;;;;0.40;79.70;98276.00;4081251;29;20043;-60
2024/01/18 07:54:42;;;;;;;18.15;11.20;;;;;;;0.52;79.18;98272.81;4083275;29;20042;-60
2024/01/18 07:56:45;;;;;;;16.52;10.52;;;;;;;0.41;79.91;98269.19;4083442;29;20482;-61
2024/01/18 07:58:48;;;;;;;15.55;10.25;;;;;;;0.44;79.74;98269.25;4090220;29;20059;-60
2024/01/18 08:00:53;;;;;;;16.30;10.88;;;;;;;0.43;79.91;98268.41;4089827;29;20062;-60
2024/01/18 08:02:56;;;;;;;16.90;11.23;;;;;;;0.47;80.41;98279.56;4088839;29;20132;-61
2024/01/18 08:04:59;;;;;;;17.40;11.50;;;;;;;0.40;80.31;98281.13;4087776;29;20142;-60
2024/01/18 08:07:02;;;;;;;15.32;10.05;;;;;;;0.43;80.00;98268.41;4076606;29;20087;-60
2024/01/18 08:09:05;;;;;;;15.90;10.43;;;;;;;0.36;79.52;98271.66;4082705;29;20126;-61
2024/01/18 08:11:11;;;;;;;16.67;10.85;;;;;;;0.23;79.98;98285.88;4082586;29;20047;-60
2024/01/18 08:13:14;;;;;;;14.80;9.48;;;;;;;0.28;79.88;98294.53;4082833;29;20050;-59
2024/01/18 08:15:17;;;;;;;15.98;9.55;;;;;;;0.26;80.11;98291.06;4081777;29;20078;-61
2024/01/18 08:17:20;;;;;;;14.13;9.30;;;;;;;0.16;79.99;98289.16;4090427;29;20039;-61
2024/01/18 08:19:23;;;;;;;14.50;9.35;;;;;;;0.19;80.26;98299.47;4087585;29;20445;-61
2024/01/18 08:21:26;;;;;;;13.32;9.40;;;;;;;0.17;80.48;98306.22;4082861;29;20046;-60
2024/01/18 08:23:28;;;;;;;14.50;9.63;;;;;;;0.17;80.36;98306.22;4081530;29;20043;-61
2024/01/18 08:25:31;;;;;;;16.73;9.30;;;;;;;0.14;80.84;98303.59;4083884;29;20044;-61
2024/01/18 08:27:36;;;;;;;13.35;8.77;;;;;;;0.26;80.84;98303.84;4084972;29;20046;-61
2024/01/18 08:29:39;;;;;;;13.63;8.32;;;;;;;0.44;79.95;98305.91;4085870;29;20048;-60
2024/01/18 08:31:41;;;;;;;12.05;8.57;;;;;;;0.39;79.99;98322.00;4085620;29;20476;-60
2024/01/18 08:33:44;;;;;;;16.52;8.80;;;;;;;0.33;79.40;98315.91;4083326;29;20047;-59
2024/01/18 08:35:46;;;;;;;13.57;8.02;;;;;;;0.30;79.26;98328.63;4085780;29;20043;-60
2024/01/18 08:37:49;;;;;;;15.13;8.52;;;;;;;0.25;79.31;98350.69;4085991;29;20098;-60
2024/01/18 08:39:51;;;;;;;13.75;8.55;;;;;;;0.26;78.61;98343.88;4086071;29;20130;-61
2024/01/18 08:41:56;;;;;;;13.23;8.80;;;;;;;0.07;79.30;98369.00;4085914;29;20058;-60
2024/01/18 08:44:00;;;;;;;13.85;8.82;;;;;;;0.05;79.88;98357.06;4092941;29;20417;-61
2024/01/18 08:46:06;;;;;;;17.98;9.02;;;;;;;0.06;79.20;98348.53;4095974;29;20485;-61
2024/01/18 08:48:09;;;;;;;26.20;9.05;;;;;;;0.08;79.02;98346.91;4095763;29;20039;-56
2024/01/18 08:50:15;;;;;;;17.08;8.55;;;;;;;0.02;79.83;98362.09;4093556;29;20540;-61
2024/01/18 08:52:19;;;;;;;16.77;9.68;;;;;;;0.05;79.15;98367.28;4100686;29;20075;-60
2024/01/18 08:54:22;;;;;;;13.67;8.90;;;;;;;-0.09;79.14;98383.16;4079302;29;20063;-61
2024/01/18 08:56:25;;;;;;;13.63;8.73;;;;;;;0.00;79.15;98379.94;4081814;29;20059;-60
2024/01/18 08:58:33;;;;;;;13.20;8.98;;;;;;;-0.23;80.09;98384.53;4091315;29;20058;-60
2024/01/18 09:00:39;;;;;;;14.27;8.55;;;;;;;-0.13;79.79;98381.34;4093375;29;20559;-59
2024/01/18 09:02:42;;;;;;;15.20;9.55;;;;;;;-0.12;79.81;98394.97;4084276;29;20035;-60
2024/01/18 09:04:45;;;;;;;13.70;8.50;;;;;;;-0.09;79.74;98383.16;4080454;29;20067;-60
2024/01/18 09:06:51;;;;;;;16.90;10.05;;;;;;;0.02;79.09;98395.31;4079163;29;20027;-60
2024/01/18 09:08:54;;;;;;;16.48;9.70;;;;;;;-0.01;79.42;98414.81;4094266;28;20520;-64
2024/01/18 09:10:58;;;;;;;15.88;9.38;;;;;;;-0.11;79.08;98409.47;4081685;29;20039;-66
2024/01/18 09:13:01;;;;;;;14.05;8.27;;;;;;;-0.15;78.91;98417.91;4066638;29;20044;-67
2024/01/18 09:15:05;;;;;;;21.48;9.48;;;;;;;-0.07;78.76;98427.47;4083904;29;20043;-66
2024/01/18 09:17:10;;;;;;;17.00;9.80;;;;;;;-0.12;79.23;98425.63;4087540;29;20126;-67
2024/01/18 09:19:12;;;;;;;;;;;;;;;-0.22;79.63;98424.53;4086909;28;20709;-68
2024/01/18 09:21:17;;;;;;;16.08;9.18;;;;;;;-0.16;79.48;98441.69;4082032;29;19923;-66
2024/01/18 09:23:20;;;;;;;14.05;8.50;;;;;;;-0.17;79.57;98435.72;4084057;29;20379;-64
2024/01/18 09:25:22;;;;;;;13.63;8.18;;;;;;;-0.17;79.89;98447.66;4084850;29;20039;-64
2024/01/18 09:27:25;;;;;;;17.30;8.70;;;;;;;-0.10;80.05;98450.38;4083019;29;20083;-63
2024/01/18 09:29:27;;;;;;;16.30;8.32;;;;;;;-0.11;79.42;98458.00;4082629;29;20122;-63
2024/01/18 09:31:30;;;;;;;20.08;9.70;;;;;;;-0.19;80.44;98465.47;4088213;29;20557;-63
2024/01/18 09:33:45;;;;;;;17.70;9.88;;;;;;;-0.11;80.48;98478.44;4084400;29;20063;-63
2024/01/18 09:35:48;;;;;;;16.63;9.35;;;;;;;-0.11;79.36;98468.22;4076460;29;20067;-62